sensor_id;sensor_type;location;lat;lon;timestamp;P1;durP1;ratioP1;P2;durP2;ratioP2
434;SDS011;204;48.942;9.256;2023-07-02T00:01:10;7.13;;;4.90;;
434;SDS011;204;48.942;9.256;2023-07-02T00:03:39;4.50;;;4.20;;
434;SDS011;204;48.942;9.256;2023-07-02T00:06:05;4.83;;;4.53;;
434;SDS011;204;48.942;9.256;2023-07-02T00:08:31;5.13;;;4.60;;
434;SDS011;204;48.942;9.256;2023-07-02T00:10:56;4.80;;;4.50;;
434;SDS011;204;48.942;9.256;2023-07-02T00:13:22;5.27;;;4.40;;
434;SDS011;204;48.942;9.256;2023-07-02T00:15:48;4.47;;;4.17;;
434;SDS011;204;48.942;9.256;2023-07-02T00:18:13;4.83;;;4.20;;
434;SDS011;204;48.942;9.256;2023-07-02T00:20:42;6.00;;;5.70;;
434;SDS011;204;48.942;9.256;2023-07-02T00:23:08;5.20;;;4.90;;
434;SDS011;204;48.942;9.256;2023-07-02T00:25:35;5.17;;;4.77;;
434;SDS011;204;48.942;9.256;2023-07-02T00:28:01;3.90;;;3.70;;
434;SDS011;204;48.942;9.256;2023-07-02T00:30:27;4.93;;;4.63;;
434;SDS011;204;48.942;9.256;2023-07-02T00:32:52;4.80;;;4.43;;
434;SDS011;204;48.942;9.256;2023-07-02T00:35:18;5.00;;;4.70;;
434;SDS011;204;48.942;9.256;2023-07-02T00:37:44;5.40;;;5.10;;
434;SDS011;204;48.942;9.256;2023-07-02T00:40:09;7.77;;;5.27;;
434;SDS011;204;48.942;9.256;2023-07-02T00:42:35;5.77;;;4.90;;
434;SDS011;204;48.942;9.256;2023-07-02T00:45:01;5.50;;;5.20;;
434;SDS011;204;48.942;9.256;2023-07-02T00:47:33;8.53;;;5.50;;
434;SDS011;204;48.942;9.256;2023-07-02T00:50:00;6.80;;;5.10;;
434;SDS011;204;48.942;9.256;2023-07-02T00:52:26;5.77;;;5.43;;
434;SDS011;204;48.942;9.256;2023-07-02T00:54:52;5.60;;;5.30;;
434;SDS011;204;48.942;9.256;2023-07-02T00:57:18;5.87;;;5.57;;
434;SDS011;204;48.942;9.256;2023-07-02T00:59:44;7.47;;;5.77;;
434;SDS011;204;48.942;9.256;2023-07-02T01:02:10;7.57;;;7.07;;
434;SDS011;204;48.942;9.256;2023-07-02T01:04:38;6.87;;;6.47;;
434;SDS011;204;48.942;9.256;2023-07-02T01:07:06;7.20;;;6.30;;
434;SDS011;204;48.942;9.256;2023-07-02T01:09:35;8.23;;;6.40;;
434;SDS011;204;48.942;9.256;2023-07-02T01:12:04;5.40;;;5.10;;
434;SDS011;204;48.942;9.256;2023-07-02T01:14:40;5.67;;;5.37;;
434;SDS011;204;48.942;9.256;2023-07-02T01:17:08;5.60;;;5.33;;
434;SDS011;204;48.942;9.256;2023-07-02T01:22:22;6.20;;;5.90;;
434;SDS011;204;48.942;9.256;2023-07-02T01:24:50;7.13;;;5.87;;
434;SDS011;204;48.942;9.256;2023-07-02T01:27:17;6.00;;;5.40;;
434;SDS011;204;48.942;9.256;2023-07-02T01:29:43;6.67;;;5.87;;
434;SDS011;204;48.942;9.256;2023-07-02T01:32:11;5.20;;;4.90;;
434;SDS011;204;48.942;9.256;2023-07-02T01:34:37;7.70;;;6.00;;
434;SDS011;204;48.942;9.256;2023-07-02T01:37:03;6.00;;;5.70;;
434;SDS011;204;48.942;9.256;2023-07-02T01:39:29;10.50;;;5.90;;
434;SDS011;204;48.942;9.256;2023-07-02T01:42:06;6.70;;;6.30;;
434;SDS011;204;48.942;9.256;2023-07-02T01:44:39;5.67;;;5.40;;
434;SDS011;204;48.942;9.256;2023-07-02T01:47:04;6.90;;;6.50;;
434;SDS011;204;48.942;9.256;2023-07-02T01:49:30;6.23;;;5.43;;
434;SDS011;204;48.942;9.256;2023-07-02T01:51:56;8.30;;;5.43;;
434;SDS011;204;48.942;9.256;2023-07-02T01:54:23;6.13;;;5.83;;
434;SDS011;204;48.942;9.256;2023-07-02T01:56:54;12.30;;;6.57;;
434;SDS011;204;48.942;9.256;2023-07-02T01:59:20;8.70;;;6.88;;
434;SDS011;204;48.942;9.256;2023-07-02T02:01:46;5.90;;;5.23;;
434;SDS011;204;48.942;9.256;2023-07-02T02:04:12;7.00;;;5.53;;
434;SDS011;204;48.942;9.256;2023-07-02T02:06:38;12.50;;;5.60;;
434;SDS011;204;48.942;9.256;2023-07-02T02:09:05;5.67;;;5.37;;
434;SDS011;204;48.942;9.256;2023-07-02T02:11:34;5.50;;;5.20;;
434;SDS011;204;48.942;9.256;2023-07-02T02:14:04;11.53;;;5.30;;
434;SDS011;204;48.942;9.256;2023-07-02T02:16:30;5.47;;;4.73;;
434;SDS011;204;48.942;9.256;2023-07-02T02:18:55;5.53;;;5.23;;
434;SDS011;204;48.942;9.256;2023-07-02T02:21:21;6.43;;;5.67;;
434;SDS011;204;48.942;9.256;2023-07-02T02:23:47;6.27;;;5.20;;
434;SDS011;204;48.942;9.256;2023-07-02T02:26:14;6.47;;;5.93;;
434;SDS011;204;48.942;9.256;2023-07-02T02:28:40;5.30;;;5.00;;
434;SDS011;204;48.942;9.256;2023-07-02T02:31:06;5.77;;;5.47;;
434;SDS011;204;48.942;9.256;2023-07-02T02:33:32;6.20;;;5.87;;
434;SDS011;204;48.942;9.256;2023-07-02T02:36:00;5.90;;;5.20;;
434;SDS011;204;48.942;9.256;2023-07-02T02:38:28;5.60;;;5.30;;
434;SDS011;204;48.942;9.256;2023-07-02T02:40:54;10.73;;;5.77;;
434;SDS011;204;48.942;9.256;2023-07-02T02:43:19;5.40;;;5.10;;
434;SDS011;204;48.942;9.256;2023-07-02T02:45:46;5.50;;;5.20;;
434;SDS011;204;48.942;9.256;2023-07-02T02:48:11;8.50;;;5.33;;
434;SDS011;204;48.942;9.256;2023-07-02T02:50:37;5.93;;;5.53;;
434;SDS011;204;48.942;9.256;2023-07-02T02:53:09;4.90;;;4.60;;
434;SDS011;204;48.942;9.256;2023-07-02T02:55:35;6.57;;;6.17;;
434;SDS011;204;48.942;9.256;2023-07-02T02:58:01;8.50;;;5.30;;
434;SDS011;204;48.942;9.256;2023-07-02T03:00:27;5.73;;;4.87;;
434;SDS011;204;48.942;9.256;2023-07-02T03:02:53;9.57;;;5.90;;
434;SDS011;204;48.942;9.256;2023-07-02T03:05:18;8.40;;;6.77;;
434;SDS011;204;48.942;9.256;2023-07-02T03:07:44;5.47;;;5.17;;
434;SDS011;204;48.942;9.256;2023-07-02T03:10:10;5.63;;;5.30;;
434;SDS011;204;48.942;9.256;2023-07-02T03:12:35;7.87;;;5.20;;
434;SDS011;204;48.942;9.256;2023-07-02T03:15:01;5.90;;;5.33;;
434;SDS011;204;48.942;9.256;2023-07-02T03:17:27;6.37;;;4.43;;
434;SDS011;204;48.942;9.256;2023-07-02T03:19:53;5.30;;;5.00;;
434;SDS011;204;48.942;9.256;2023-07-02T03:22:18;8.10;;;6.07;;
434;SDS011;204;48.942;9.256;2023-07-02T03:24:44;6.00;;;5.40;;
434;SDS011;204;48.942;9.256;2023-07-02T03:27:09;8.40;;;6.03;;
434;SDS011;204;48.942;9.256;2023-07-02T03:29:35;5.87;;;5.20;;
434;SDS011;204;48.942;9.256;2023-07-02T03:32:01;8.13;;;6.00;;
434;SDS011;204;48.942;9.256;2023-07-02T03:34:27;5.83;;;5.53;;
434;SDS011;204;48.942;9.256;2023-07-02T03:36:52;9.27;;;5.53;;
434;SDS011;204;48.942;9.256;2023-07-02T03:39:18;9.83;;;5.57;;
434;SDS011;204;48.942;9.256;2023-07-02T03:41:44;6.93;;;6.57;;
434;SDS011;204;48.942;9.256;2023-07-02T03:44:10;6.63;;;6.10;;
434;SDS011;204;48.942;9.256;2023-07-02T03:46:36;6.73;;;6.33;;
434;SDS011;204;48.942;9.256;2023-07-02T03:49:02;7.53;;;5.60;;
434;SDS011;204;48.942;9.256;2023-07-02T03:51:28;8.97;;;6.83;;
434;SDS011;204;48.942;9.256;2023-07-02T03:53:54;9.17;;;6.03;;
434;SDS011;204;48.942;9.256;2023-07-02T03:56:19;13.30;;;6.00;;
434;SDS011;204;48.942;9.256;2023-07-02T03:58:45;7.80;;;6.47;;
434;SDS011;204;48.942;9.256;2023-07-02T04:01:11;6.60;;;6.00;;
434;SDS011;204;48.942;9.256;2023-07-02T04:03:37;9.63;;;7.30;;
434;SDS011;204;48.942;9.256;2023-07-02T04:06:03;10.43;;;6.60;;
434;SDS011;204;48.942;9.256;2023-07-02T04:08:31;9.93;;;7.00;;
434;SDS011;204;48.942;9.256;2023-07-02T04:10:57;14.03;;;7.30;;
434;SDS011;204;48.942;9.256;2023-07-02T04:13:23;7.77;;;5.93;;
434;SDS011;204;48.942;9.256;2023-07-02T04:15:48;8.77;;;6.83;;
434;SDS011;204;48.942;9.256;2023-07-02T04:18:14;9.53;;;7.13;;
434;SDS011;204;48.942;9.256;2023-07-02T04:20:39;15.17;;;6.80;;
434;SDS011;204;48.942;9.256;2023-07-02T04:23:05;7.27;;;6.60;;
434;SDS011;204;48.942;9.256;2023-07-02T04:25:31;17.37;;;7.13;;
434;SDS011;204;48.942;9.256;2023-07-02T04:27:57;9.20;;;6.80;;
434;SDS011;204;48.942;9.256;2023-07-02T04:30:23;7.63;;;5.80;;
434;SDS011;204;48.942;9.256;2023-07-02T04:32:50;7.73;;;5.90;;
434;SDS011;204;48.942;9.256;2023-07-02T04:35:16;7.07;;;5.70;;
434;SDS011;204;48.942;9.256;2023-07-02T04:37:42;8.33;;;6.00;;
434;SDS011;204;48.942;9.256;2023-07-02T04:40:08;11.43;;;6.60;;
434;SDS011;204;48.942;9.256;2023-07-02T04:42:39;10.93;;;7.13;;
434;SDS011;204;48.942;9.256;2023-07-02T04:45:06;8.20;;;6.47;;
434;SDS011;204;48.942;9.256;2023-07-02T04:47:33;9.50;;;6.57;;
434;SDS011;204;48.942;9.256;2023-07-02T04:49:59;10.03;;;6.07;;
434;SDS011;204;48.942;9.256;2023-07-02T04:52:26;8.53;;;6.90;;
434;SDS011;204;48.942;9.256;2023-07-02T04:54:51;7.07;;;5.10;;
434;SDS011;204;48.942;9.256;2023-07-02T04:57:17;10.87;;;6.13;;
434;SDS011;204;48.942;9.256;2023-07-02T04:59:43;5.63;;;5.27;;
434;SDS011;204;48.942;9.256;2023-07-02T05:02:09;8.13;;;5.10;;
434;SDS011;204;48.942;9.256;2023-07-02T05:04:35;8.73;;;5.20;;
434;SDS011;204;48.942;9.256;2023-07-02T05:07:02;12.90;;;5.80;;
434;SDS011;204;48.942;9.256;2023-07-02T05:09:28;7.70;;;5.47;;
434;SDS011;204;48.942;9.256;2023-07-02T05:11:54;8.17;;;4.87;;
434;SDS011;204;48.942;9.256;2023-07-02T05:14:19;5.17;;;4.90;;
434;SDS011;204;48.942;9.256;2023-07-02T05:16:45;5.17;;;4.67;;
434;SDS011;204;48.942;9.256;2023-07-02T05:19:10;10.13;;;5.57;;
434;SDS011;204;48.942;9.256;2023-07-02T05:21:36;4.77;;;3.87;;
434;SDS011;204;48.942;9.256;2023-07-02T05:24:01;9.47;;;3.83;;
434;SDS011;204;48.942;9.256;2023-07-02T05:26:27;7.70;;;3.77;;
434;SDS011;204;48.942;9.256;2023-07-02T05:28:53;5.87;;;4.10;;
434;SDS011;204;48.942;9.256;2023-07-02T05:31:18;6.63;;;3.80;;
434;SDS011;204;48.942;9.256;2023-07-02T05:33:44;5.20;;;4.00;;
434;SDS011;204;48.942;9.256;2023-07-02T05:36:10;5.03;;;3.53;;
434;SDS011;204;48.942;9.256;2023-07-02T05:38:36;4.93;;;3.40;;
434;SDS011;204;48.942;9.256;2023-07-02T05:41:02;4.67;;;3.20;;
434;SDS011;204;48.942;9.256;2023-07-02T05:43:28;5.20;;;3.90;;
434;SDS011;204;48.942;9.256;2023-07-02T05:45:54;5.43;;;3.43;;
434;SDS011;204;48.942;9.256;2023-07-02T05:48:19;6.03;;;3.30;;
434;SDS011;204;48.942;9.256;2023-07-02T05:50:45;4.77;;;4.47;;
434;SDS011;204;48.942;9.256;2023-07-02T05:53:11;5.40;;;4.57;;
434;SDS011;204;48.942;9.256;2023-07-02T05:55:37;7.43;;;4.10;;
434;SDS011;204;48.942;9.256;2023-07-02T05:58:02;7.73;;;4.37;;
434;SDS011;204;48.942;9.256;2023-07-02T06:00:28;8.10;;;4.63;;
434;SDS011;204;48.942;9.256;2023-07-02T06:02:54;6.90;;;5.10;;
434;SDS011;204;48.942;9.256;2023-07-02T06:05:20;6.17;;;4.63;;
434;SDS011;204;48.942;9.256;2023-07-02T06:07:45;12.50;;;5.70;;
434;SDS011;204;48.942;9.256;2023-07-02T06:10:11;5.97;;;5.17;;
434;SDS011;204;48.942;9.256;2023-07-02T06:12:37;7.80;;;6.23;;
434;SDS011;204;48.942;9.256;2023-07-02T06:15:03;9.80;;;5.53;;
434;SDS011;204;48.942;9.256;2023-07-02T06:17:29;9.50;;;6.47;;
434;SDS011;204;48.942;9.256;2023-07-02T06:19:55;9.13;;;6.30;;
434;SDS011;204;48.942;9.256;2023-07-02T06:22:21;9.00;;;6.10;;
434;SDS011;204;48.942;9.256;2023-07-02T06:24:47;10.00;;;6.40;;
434;SDS011;204;48.942;9.256;2023-07-02T06:27:12;8.43;;;6.77;;
434;SDS011;204;48.942;9.256;2023-07-02T06:29:38;8.23;;;6.20;;
434;SDS011;204;48.942;9.256;2023-07-02T06:32:04;7.27;;;5.80;;
434;SDS011;204;48.942;9.256;2023-07-02T06:34:30;9.03;;;6.30;;
434;SDS011;204;48.942;9.256;2023-07-02T06:36:55;7.23;;;5.50;;
434;SDS011;204;48.942;9.256;2023-07-02T06:39:21;6.80;;;5.50;;
434;SDS011;204;48.942;9.256;2023-07-02T06:41:46;11.60;;;6.57;;
434;SDS011;204;48.942;9.256;2023-07-02T06:44:12;7.73;;;5.40;;
434;SDS011;204;48.942;9.256;2023-07-02T06:46:37;7.80;;;6.43;;
434;SDS011;204;48.942;9.256;2023-07-02T06:49:03;8.60;;;6.80;;
434;SDS011;204;48.942;9.256;2023-07-02T06:51:29;9.13;;;5.93;;
434;SDS011;204;48.942;9.256;2023-07-02T06:53:54;8.67;;;6.53;;
434;SDS011;204;48.942;9.256;2023-07-02T06:56:20;8.93;;;6.07;;
434;SDS011;204;48.942;9.256;2023-07-02T06:58:46;8.20;;;6.73;;
434;SDS011;204;48.942;9.256;2023-07-02T07:01:11;8.67;;;6.10;;
434;SDS011;204;48.942;9.256;2023-07-02T07:03:37;10.23;;;6.87;;
434;SDS011;204;48.942;9.256;2023-07-02T07:06:03;11.57;;;6.87;;
434;SDS011;204;48.942;9.256;2023-07-02T07:08:28;11.43;;;7.13;;
434;SDS011;204;48.942;9.256;2023-07-02T07:10:54;9.70;;;7.70;;
434;SDS011;204;48.942;9.256;2023-07-02T07:13:20;10.60;;;7.00;;
434;SDS011;204;48.942;9.256;2023-07-02T07:15:46;9.13;;;7.80;;
434;SDS011;204;48.942;9.256;2023-07-02T07:18:11;11.20;;;7.67;;
434;SDS011;204;48.942;9.256;2023-07-02T07:20:38;11.20;;;7.90;;
434;SDS011;204;48.942;9.256;2023-07-02T07:23:07;10.63;;;7.73;;
434;SDS011;204;48.942;9.256;2023-07-02T07:25:33;8.67;;;6.20;;
434;SDS011;204;48.942;9.256;2023-07-02T07:27:59;6.60;;;6.20;;
434;SDS011;204;48.942;9.256;2023-07-02T07:30:25;12.20;;;7.77;;
434;SDS011;204;48.942;9.256;2023-07-02T07:32:54;11.57;;;7.30;;
434;SDS011;204;48.942;9.256;2023-07-02T07:35:21;7.70;;;6.03;;
434;SDS011;204;48.942;9.256;2023-07-02T07:37:47;8.30;;;6.70;;
434;SDS011;204;48.942;9.256;2023-07-02T07:40:13;11.63;;;6.90;;
434;SDS011;204;48.942;9.256;2023-07-02T07:42:40;10.97;;;7.40;;
434;SDS011;204;48.942;9.256;2023-07-02T07:45:07;12.93;;;6.73;;
434;SDS011;204;48.942;9.256;2023-07-02T07:47:34;9.20;;;6.10;;
434;SDS011;204;48.942;9.256;2023-07-02T07:49:59;11.23;;;8.13;;
434;SDS011;204;48.942;9.256;2023-07-02T07:52:25;10.50;;;7.60;;
434;SDS011;204;48.942;9.256;2023-07-02T07:54:51;9.97;;;6.73;;
434;SDS011;204;48.942;9.256;2023-07-02T07:57:16;10.23;;;7.30;;
434;SDS011;204;48.942;9.256;2023-07-02T07:59:42;11.23;;;8.83;;
434;SDS011;204;48.942;9.256;2023-07-02T08:02:07;10.90;;;8.33;;
434;SDS011;204;48.942;9.256;2023-07-02T08:04:34;12.90;;;9.77;;
434;SDS011;204;48.942;9.256;2023-07-02T08:06:59;15.50;;;10.03;;
434;SDS011;204;48.942;9.256;2023-07-02T08:09:25;10.40;;;8.23;;
434;SDS011;204;48.942;9.256;2023-07-02T08:11:50;13.33;;;9.50;;
434;SDS011;204;48.942;9.256;2023-07-02T08:14:16;14.60;;;10.30;;
434;SDS011;204;48.942;9.256;2023-07-02T08:16:45;13.60;;;9.47;;
434;SDS011;204;48.942;9.256;2023-07-02T08:19:10;16.53;;;9.60;;
434;SDS011;204;48.942;9.256;2023-07-02T08:21:36;19.00;;;11.53;;
434;SDS011;204;48.942;9.256;2023-07-02T08:24:02;13.13;;;10.30;;
434;SDS011;204;48.942;9.256;2023-07-02T08:26:28;10.37;;;9.40;;
434;SDS011;204;48.942;9.256;2023-07-02T08:28:54;14.10;;;10.40;;
434;SDS011;204;48.942;9.256;2023-07-02T08:31:19;12.00;;;9.40;;
434;SDS011;204;48.942;9.256;2023-07-02T08:33:45;15.47;;;12.63;;
434;SDS011;204;48.942;9.256;2023-07-02T08:36:11;11.97;;;10.67;;
434;SDS011;204;48.942;9.256;2023-07-02T08:38:38;16.97;;;12.30;;
434;SDS011;204;48.942;9.256;2023-07-02T08:41:06;15.73;;;11.50;;
434;SDS011;204;48.942;9.256;2023-07-02T08:43:32;17.57;;;12.47;;
434;SDS011;204;48.942;9.256;2023-07-02T08:46:02;17.47;;;13.77;;
434;SDS011;204;48.942;9.256;2023-07-02T08:48:28;15.30;;;11.47;;
434;SDS011;204;48.942;9.256;2023-07-02T08:50:54;17.57;;;12.13;;
434;SDS011;204;48.942;9.256;2023-07-02T08:53:21;16.27;;;12.17;;
434;SDS011;204;48.942;9.256;2023-07-02T08:55:54;14.37;;;11.80;;
434;SDS011;204;48.942;9.256;2023-07-02T08:58:21;16.70;;;12.30;;
434;SDS011;204;48.942;9.256;2023-07-02T09:03:38;18.93;;;13.07;;
434;SDS011;204;48.942;9.256;2023-07-02T09:06:09;19.03;;;13.47;;
434;SDS011;204;48.942;9.256;2023-07-02T09:08:35;17.77;;;13.60;;
434;SDS011;204;48.942;9.256;2023-07-02T09:11:07;21.30;;;13.87;;
434;SDS011;204;48.942;9.256;2023-07-02T09:13:52;18.30;;;13.27;;
434;SDS011;204;48.942;9.256;2023-07-02T09:19:06;17.80;;;13.50;;
434;SDS011;204;48.942;9.256;2023-07-02T09:26:44;18.80;;;13.77;;
434;SDS011;204;48.942;9.256;2023-07-02T09:29:17;20.10;;;14.67;;
434;SDS011;204;48.942;9.256;2023-07-02T09:31:48;18.73;;;13.33;;
434;SDS011;204;48.942;9.256;2023-07-02T09:34:13;21.20;;;15.20;;
434;SDS011;204;48.942;9.256;2023-07-02T09:36:39;19.37;;;14.83;;
434;SDS011;204;48.942;9.256;2023-07-02T09:39:12;22.93;;;14.10;;
434;SDS011;204;48.942;9.256;2023-07-02T09:41:40;20.60;;;13.53;;
434;SDS011;204;48.942;9.256;2023-07-02T09:44:07;19.57;;;14.23;;
434;SDS011;204;48.942;9.256;2023-07-02T09:46:43;21.03;;;14.63;;
434;SDS011;204;48.942;9.256;2023-07-02T09:49:16;19.73;;;14.67;;
434;SDS011;204;48.942;9.256;2023-07-02T09:51:45;16.53;;;13.90;;
434;SDS011;204;48.942;9.256;2023-07-02T09:54:11;18.50;;;13.60;;
434;SDS011;204;48.942;9.256;2023-07-02T09:56:36;21.30;;;14.00;;
434;SDS011;204;48.942;9.256;2023-07-02T09:59:02;20.07;;;14.30;;
434;SDS011;204;48.942;9.256;2023-07-02T10:01:28;20.60;;;15.10;;
434;SDS011;204;48.942;9.256;2023-07-02T10:03:54;21.13;;;15.00;;
434;SDS011;204;48.942;9.256;2023-07-02T10:06:19;23.03;;;14.93;;
434;SDS011;204;48.942;9.256;2023-07-02T10:08:54;19.47;;;15.93;;
434;SDS011;204;48.942;9.256;2023-07-02T10:11:20;19.67;;;15.50;;
434;SDS011;204;48.942;9.256;2023-07-02T10:13:57;17.40;;;14.50;;
434;SDS011;204;48.942;9.256;2023-07-02T10:16:24;21.40;;;15.10;;
434;SDS011;204;48.942;9.256;2023-07-02T10:18:52;22.10;;;15.27;;
434;SDS011;204;48.942;9.256;2023-07-02T10:21:18;22.50;;;15.10;;
434;SDS011;204;48.942;9.256;2023-07-02T10:23:44;20.37;;;13.87;;
434;SDS011;204;48.942;9.256;2023-07-02T10:26:13;20.40;;;14.30;;
434;SDS011;204;48.942;9.256;2023-07-02T10:28:40;20.53;;;14.10;;
434;SDS011;204;48.942;9.256;2023-07-02T10:31:16;20.50;;;13.77;;
434;SDS011;204;48.942;9.256;2023-07-02T10:33:45;18.83;;;14.60;;
434;SDS011;204;48.942;9.256;2023-07-02T10:36:18;17.40;;;13.80;;
434;SDS011;204;48.942;9.256;2023-07-02T10:38:48;21.33;;;14.40;;
434;SDS011;204;48.942;9.256;2023-07-02T10:41:25;19.60;;;13.73;;
434;SDS011;204;48.942;9.256;2023-07-02T10:43:52;17.90;;;12.50;;
434;SDS011;204;48.942;9.256;2023-07-02T10:46:18;17.33;;;12.90;;
434;SDS011;204;48.942;9.256;2023-07-02T10:48:56;18.33;;;13.90;;
434;SDS011;204;48.942;9.256;2023-07-02T10:51:22;15.27;;;12.67;;
434;SDS011;204;48.942;9.256;2023-07-02T10:54:02;24.60;;;14.57;;
434;SDS011;204;48.942;9.256;2023-07-02T10:56:29;20.10;;;14.40;;
434;SDS011;204;48.942;9.256;2023-07-02T10:58:56;18.03;;;14.00;;
434;SDS011;204;48.942;9.256;2023-07-02T11:01:28;20.57;;;14.50;;
434;SDS011;204;48.942;9.256;2023-07-02T11:03:56;18.33;;;13.67;;
434;SDS011;204;48.942;9.256;2023-07-02T11:06:23;16.23;;;13.03;;
434;SDS011;204;48.942;9.256;2023-07-02T11:08:48;21.80;;;13.90;;
434;SDS011;204;48.942;9.256;2023-07-02T11:11:14;21.27;;;13.40;;
434;SDS011;204;48.942;9.256;2023-07-02T11:13:46;17.60;;;13.97;;
434;SDS011;204;48.942;9.256;2023-07-02T11:16:22;18.77;;;13.67;;
434;SDS011;204;48.942;9.256;2023-07-02T11:19:05;13.43;;;12.13;;
434;SDS011;204;48.942;9.256;2023-07-02T11:21:35;17.33;;;13.07;;
434;SDS011;204;48.942;9.256;2023-07-02T11:24:02;16.87;;;13.30;;
434;SDS011;204;48.942;9.256;2023-07-02T11:26:38;19.80;;;14.10;;
434;SDS011;204;48.942;9.256;2023-07-02T11:29:11;20.70;;;13.90;;
434;SDS011;204;48.942;9.256;2023-07-02T11:31:37;18.80;;;12.90;;
434;SDS011;204;48.942;9.256;2023-07-02T11:34:13;20.33;;;13.73;;
434;SDS011;204;48.942;9.256;2023-07-02T11:36:39;20.40;;;14.43;;
434;SDS011;204;48.942;9.256;2023-07-02T11:39:05;16.70;;;12.60;;
434;SDS011;204;48.942;9.256;2023-07-02T11:41:37;15.97;;;13.30;;
434;SDS011;204;48.942;9.256;2023-07-02T11:44:03;17.37;;;13.50;;
434;SDS011;204;48.942;9.256;2023-07-02T11:46:29;17.10;;;13.00;;
434;SDS011;204;48.942;9.256;2023-07-02T11:48:55;17.20;;;12.27;;
434;SDS011;204;48.942;9.256;2023-07-02T11:51:21;15.87;;;12.90;;
434;SDS011;204;48.942;9.256;2023-07-02T11:53:46;15.53;;;12.20;;
434;SDS011;204;48.942;9.256;2023-07-02T11:56:12;15.40;;;13.07;;
434;SDS011;204;48.942;9.256;2023-07-02T11:58:38;15.40;;;12.43;;
434;SDS011;204;48.942;9.256;2023-07-02T12:01:07;20.47;;;12.17;;
434;SDS011;204;48.942;9.256;2023-07-02T12:03:32;14.70;;;12.70;;
434;SDS011;204;48.942;9.256;2023-07-02T12:05:58;15.97;;;13.20;;
434;SDS011;204;48.942;9.256;2023-07-02T12:08:24;19.47;;;14.77;;
434;SDS011;204;48.942;9.256;2023-07-02T12:10:49;15.37;;;12.20;;
434;SDS011;204;48.942;9.256;2023-07-02T12:13:15;23.30;;;13.90;;
434;SDS011;204;48.942;9.256;2023-07-02T12:15:46;15.03;;;12.23;;
434;SDS011;204;48.942;9.256;2023-07-02T12:18:12;13.93;;;11.73;;
434;SDS011;204;48.942;9.256;2023-07-02T12:20:38;24.00;;;13.50;;
434;SDS011;204;48.942;9.256;2023-07-02T12:23:05;22.00;;;13.73;;
434;SDS011;204;48.942;9.256;2023-07-02T12:25:31;19.50;;;13.80;;
434;SDS011;204;48.942;9.256;2023-07-02T12:27:56;15.00;;;12.10;;
434;SDS011;204;48.942;9.256;2023-07-02T12:30:22;15.20;;;13.20;;
434;SDS011;204;48.942;9.256;2023-07-02T12:32:48;17.53;;;13.63;;
434;SDS011;204;48.942;9.256;2023-07-02T12:35:13;19.63;;;13.97;;
434;SDS011;204;48.942;9.256;2023-07-02T12:37:42;16.43;;;12.63;;
434;SDS011;204;48.942;9.256;2023-07-02T12:40:12;18.43;;;14.40;;
434;SDS011;204;48.942;9.256;2023-07-02T12:42:38;17.17;;;14.30;;
434;SDS011;204;48.942;9.256;2023-07-02T12:45:05;24.70;;;15.00;;
434;SDS011;204;48.942;9.256;2023-07-02T12:47:31;21.07;;;13.40;;
434;SDS011;204;48.942;9.256;2023-07-02T12:49:59;24.00;;;13.87;;
434;SDS011;204;48.942;9.256;2023-07-02T12:52:25;19.20;;;14.23;;
434;SDS011;204;48.942;9.256;2023-07-02T12:54:50;20.20;;;14.10;;
434;SDS011;204;48.942;9.256;2023-07-02T12:57:17;16.40;;;13.57;;
434;SDS011;204;48.942;9.256;2023-07-02T12:59:43;18.00;;;13.10;;
434;SDS011;204;48.942;9.256;2023-07-02T13:02:09;16.27;;;12.83;;
434;SDS011;204;48.942;9.256;2023-07-02T13:04:35;18.67;;;12.97;;
434;SDS011;204;48.942;9.256;2023-07-02T13:07:01;17.10;;;12.23;;
434;SDS011;204;48.942;9.256;2023-07-02T13:09:26;23.13;;;14.97;;
434;SDS011;204;48.942;9.256;2023-07-02T13:11:52;16.43;;;13.37;;
434;SDS011;204;48.942;9.256;2023-07-02T13:14:18;16.60;;;12.60;;
434;SDS011;204;48.942;9.256;2023-07-02T13:16:43;18.27;;;12.30;;
434;SDS011;204;48.942;9.256;2023-07-02T13:19:09;19.57;;;13.50;;
434;SDS011;204;48.942;9.256;2023-07-02T13:21:35;19.17;;;13.23;;
434;SDS011;204;48.942;9.256;2023-07-02T13:24:01;16.47;;;13.30;;
434;SDS011;204;48.942;9.256;2023-07-02T13:26:27;16.50;;;12.70;;
434;SDS011;204;48.942;9.256;2023-07-02T13:28:52;16.20;;;12.97;;
434;SDS011;204;48.942;9.256;2023-07-02T13:31:18;15.93;;;12.00;;
434;SDS011;204;48.942;9.256;2023-07-02T13:33:44;17.57;;;12.40;;
434;SDS011;204;48.942;9.256;2023-07-02T13:36:11;17.10;;;13.20;;
434;SDS011;204;48.942;9.256;2023-07-02T13:38:37;17.57;;;13.40;;
434;SDS011;204;48.942;9.256;2023-07-02T13:41:03;14.83;;;13.10;;
434;SDS011;204;48.942;9.256;2023-07-02T13:43:29;15.97;;;12.40;;
434;SDS011;204;48.942;9.256;2023-07-02T13:45:54;15.87;;;12.03;;
434;SDS011;204;48.942;9.256;2023-07-02T13:48:20;17.73;;;12.80;;
434;SDS011;204;48.942;9.256;2023-07-02T13:50:45;16.20;;;13.00;;
434;SDS011;204;48.942;9.256;2023-07-02T13:53:11;14.80;;;11.10;;
434;SDS011;204;48.942;9.256;2023-07-02T13:55:37;17.33;;;13.33;;
434;SDS011;204;48.942;9.256;2023-07-02T13:58:02;17.73;;;12.53;;
434;SDS011;204;48.942;9.256;2023-07-02T14:00:28;15.10;;;12.20;;
434;SDS011;204;48.942;9.256;2023-07-02T14:02:54;15.47;;;13.47;;
434;SDS011;204;48.942;9.256;2023-07-02T14:05:20;16.93;;;12.53;;
434;SDS011;204;48.942;9.256;2023-07-02T14:07:46;15.23;;;11.73;;
434;SDS011;204;48.942;9.256;2023-07-02T14:10:13;16.60;;;11.40;;
434;SDS011;204;48.942;9.256;2023-07-02T14:12:39;23.50;;;12.73;;
434;SDS011;204;48.942;9.256;2023-07-02T14:15:06;14.20;;;11.80;;
434;SDS011;204;48.942;9.256;2023-07-02T14:17:32;15.40;;;11.93;;
434;SDS011;204;48.942;9.256;2023-07-02T14:19:57;15.83;;;11.73;;
434;SDS011;204;48.942;9.256;2023-07-02T14:22:23;13.10;;;10.90;;
434;SDS011;204;48.942;9.256;2023-07-02T14:24:48;16.83;;;11.97;;
434;SDS011;204;48.942;9.256;2023-07-02T14:27:14;15.30;;;11.87;;
434;SDS011;204;48.942;9.256;2023-07-02T14:29:40;17.30;;;12.77;;
434;SDS011;204;48.942;9.256;2023-07-02T14:32:06;14.90;;;11.93;;
434;SDS011;204;48.942;9.256;2023-07-02T14:34:32;17.40;;;11.83;;
434;SDS011;204;48.942;9.256;2023-07-02T14:36:58;14.43;;;11.33;;
434;SDS011;204;48.942;9.256;2023-07-02T14:39:24;17.43;;;12.57;;
434;SDS011;204;48.942;9.256;2023-07-02T14:41:49;15.53;;;11.47;;
434;SDS011;204;48.942;9.256;2023-07-02T14:44:15;16.27;;;12.67;;
434;SDS011;204;48.942;9.256;2023-07-02T14:46:41;17.40;;;11.60;;
434;SDS011;204;48.942;9.256;2023-07-02T14:49:07;14.70;;;11.40;;
434;SDS011;204;48.942;9.256;2023-07-02T14:51:33;19.13;;;12.30;;
434;SDS011;204;48.942;9.256;2023-07-02T14:53:59;14.00;;;11.47;;
434;SDS011;204;48.942;9.256;2023-07-02T14:56:28;17.53;;;12.53;;
434;SDS011;204;48.942;9.256;2023-07-02T14:58:54;13.57;;;11.10;;
434;SDS011;204;48.942;9.256;2023-07-02T15:01:22;16.20;;;12.63;;
434;SDS011;204;48.942;9.256;2023-07-02T15:03:47;16.13;;;12.00;;
434;SDS011;204;48.942;9.256;2023-07-02T15:06:15;15.40;;;12.13;;
434;SDS011;204;48.942;9.256;2023-07-02T15:08:42;18.30;;;11.27;;
434;SDS011;204;48.942;9.256;2023-07-02T15:11:09;19.47;;;12.33;;
434;SDS011;204;48.942;9.256;2023-07-02T15:13:36;15.80;;;12.70;;
434;SDS011;204;48.942;9.256;2023-07-02T15:16:02;17.60;;;12.20;;
434;SDS011;204;48.942;9.256;2023-07-02T15:18:28;12.63;;;11.60;;
434;SDS011;204;48.942;9.256;2023-07-02T15:20:54;14.07;;;11.23;;
434;SDS011;204;48.942;9.256;2023-07-02T15:23:21;15.20;;;12.07;;
434;SDS011;204;48.942;9.256;2023-07-02T15:25:55;15.93;;;12.63;;
434;SDS011;204;48.942;9.256;2023-07-02T15:28:22;17.17;;;11.50;;
434;SDS011;204;48.942;9.256;2023-07-02T15:30:57;16.13;;;12.40;;
434;SDS011;204;48.942;9.256;2023-07-02T15:33:24;16.97;;;11.90;;
434;SDS011;204;48.942;9.256;2023-07-02T15:35:50;13.73;;;11.53;;
434;SDS011;204;48.942;9.256;2023-07-02T15:38:16;14.33;;;10.73;;
434;SDS011;204;48.942;9.256;2023-07-02T15:40:44;14.97;;;11.73;;